Lampang, Thailand
Current Conditions -  °F | °C
As of 2:30 PM on Thursday 18 Dec 2014 (Local Time) from VTCC Reporting Station
Broken Clouds Broken Clouds  
Wind Chill: 73°   Ceiling: 3500
Heat Index: 73°   Visibility: 6mi
Dew Point: 54°   Wind: 6mph
Humidity: 50%   Direction: 220°SW
Pressure: 30.06"   Gusts: NA
Location:  18.29°N, 99.48°E
Report Text: VTCC 180730Z 22005KT 9999 BKN035 SCT110 23/12 Q1018 A3008 NOSIG
Loading
Personal Weather Stations






























Interactive Weather Map New forecast layout! Learn more

10-Day Weather Forecast

Advertisements
Track Severe Weather on mobile